createdAt,value
2023-01-20T00:01:34.291Z,99.70
2023-01-20T00:04:35.772Z,99.70
2023-01-20T00:07:37.380Z,99.60
2023-01-20T00:10:38.996Z,99.60
2023-01-20T00:13:40.515Z,99.60
2023-01-20T00:16:42.382Z,99.60
2023-01-20T00:19:43.849Z,99.10
2023-01-20T00:22:45.327Z,99.50
2023-01-20T00:25:46.804Z,99.60
2023-01-20T00:28:49.207Z,99.70
2023-01-20T00:31:50.673Z,99.70
2023-01-20T00:34:52.125Z,99.60
2023-01-20T00:37:53.585Z,99.60
2023-01-20T00:40:55.486Z,99.60
2023-01-20T00:43:56.961Z,99.70
2023-01-20T00:46:58.472Z,99.50
2023-01-20T00:49:59.924Z,99.60
2023-01-20T00:53:01.486Z,99.60
2023-01-20T00:56:03.290Z,99.60
2023-01-20T00:59:04.767Z,99.90
2023-01-20T01:02:06.359Z,99.50
2023-01-20T01:05:08.126Z,99.80
2023-01-20T01:08:09.844Z,99.50
2023-01-20T01:11:11.890Z,99.30
2023-01-20T01:14:13.448Z,99.50
2023-01-20T01:17:15.136Z,99.60
2023-01-20T01:20:16.817Z,99.20
2023-01-20T01:23:18.672Z,99.50
2023-01-20T01:26:20.139Z,99.60
2023-01-20T01:29:21.602Z,99.60
2023-01-20T01:32:23.318Z,99.60
2023-01-20T01:35:24.831Z,99.50
2023-01-20T01:38:27.069Z,99.90
2023-01-20T01:41:28.623Z,99.70
2023-01-20T01:44:31.583Z,99.80
2023-01-20T01:47:33.121Z,99.60
2023-01-20T01:50:42.190Z,99.50
2023-01-20T01:53:46.023Z,99.60
2023-01-20T01:56:48.485Z,99.60
2023-01-20T01:59:50.047Z,99.50
2023-01-20T02:02:51.863Z,99.50
2023-01-20T02:05:54.838Z,99.70
2023-01-20T02:08:56.633Z,99.60
2023-01-20T02:12:00.493Z,99.40
2023-01-20T02:15:02.962Z,99.60
2023-01-20T02:18:24.872Z,99.80
2023-01-20T02:21:34.339Z,99.20
2023-01-20T02:24:54.703Z,99.80
2023-01-20T02:27:56.154Z,99.20
2023-01-20T02:31:07.296Z,99.70
2023-01-20T02:34:18.105Z,99.80
2023-01-20T02:37:23.440Z,99.10
2023-01-20T02:40:42.941Z,99.70
2023-01-20T02:43:50.697Z,99.10
2023-01-20T02:46:56.249Z,99.20
2023-01-20T02:50:03.869Z,99.90
2023-01-20T02:53:05.805Z,99.70
2023-01-20T02:56:08.711Z,99.90
2023-01-20T02:59:11.863Z,99.80
2023-01-20T03:02:15.558Z,99.80
2023-01-20T03:05:29.756Z,99.80
2023-01-20T03:08:32.300Z,99.20
2023-01-20T03:11:36.352Z,99.80
2023-01-20T03:14:37.939Z,99.80
2023-01-20T03:17:39.622Z,99.70
2023-01-20T03:20:41.113Z,99.60
2023-01-20T03:23:44.366Z,99.80
2023-01-20T03:26:45.826Z,99.70
2023-01-20T03:29:47.309Z,99.70
2023-01-20T03:32:49.358Z,99.10
2023-01-20T03:35:51.373Z,99.80
2023-01-20T03:38:53.380Z,99.90
2023-01-20T03:42:07.804Z,99.70
2023-01-20T03:45:19.126Z,99.10
2023-01-20T03:48:38.133Z,99.20
2023-01-20T03:52:00.415Z,99.20
2023-01-20T03:55:04.761Z,99.30
2023-01-20T03:58:15.132Z,99.90
2023-01-20T04:01:19.166Z,99.20
2023-01-20T04:04:21.095Z,99.70
2023-01-20T04:07:24.920Z,99.80
2023-01-20T04:10:26.983Z,99.80
2023-01-20T04:13:28.517Z,99.70
2023-01-20T04:16:30.014Z,99.70
2023-01-20T04:19:31.518Z,99.90
2023-01-20T04:22:32.995Z,99.80
2023-01-20T04:25:34.690Z,99.80
2023-01-20T04:28:36.373Z,99.90
2023-01-20T04:31:37.939Z,99.80
2023-01-20T04:34:39.537Z,99.80
2023-01-20T04:37:41.076Z,99.90
2023-01-20T04:40:42.641Z,99.70
2023-01-20T04:43:45.078Z,99.90
2023-01-20T04:46:47.317Z,99.90
2023-01-20T04:49:48.984Z,99.90
2023-01-20T04:52:53.863Z,99.90
2023-01-20T04:55:55.469Z,99.90
2023-01-20T04:58:57.054Z,99.80
2023-01-20T05:01:58.684Z,99.90
2023-01-20T05:05:00.335Z,99.90
2023-01-20T05:08:02.809Z,99.90
2023-01-20T05:11:04.363Z,99.90
2023-01-20T05:14:05.815Z,99.90
2023-01-20T05:17:07.631Z,99.90
2023-01-20T05:20:09.561Z,99.90
2023-01-20T05:23:11.058Z,99.80
2023-01-20T05:26:12.680Z,99.90
2023-01-20T05:29:14.143Z,99.90
2023-01-20T05:32:15.664Z,99.90
2023-01-20T05:35:17.484Z,99.90
2023-01-20T05:38:19.107Z,99.90
2023-01-20T05:41:20.565Z,99.90
2023-01-20T05:44:22.090Z,99.90
2023-01-20T05:47:23.707Z,99.90
2023-01-20T05:50:26.017Z,99.90
2023-01-20T05:53:27.501Z,99.90
2023-01-20T05:56:29.005Z,99.90
2023-01-20T05:59:30.491Z,99.90
2023-01-20T06:02:32.415Z,99.90
2023-01-20T06:05:33.982Z,99.80
2023-01-20T06:08:35.725Z,99.70
2023-01-20T06:11:37.509Z,99.90
2023-01-20T06:14:39.009Z,99.60
2023-01-20T06:17:40.482Z,99.90
2023-01-20T06:20:41.991Z,99.90
2023-01-20T06:23:43.516Z,99.90
2023-01-20T06:26:45.043Z,99.90
2023-01-20T06:29:46.672Z,99.90
2023-01-20T06:32:48.345Z,99.90
2023-01-20T06:35:52.813Z,99.90
2023-01-20T06:38:54.259Z,99.90
2023-01-20T06:41:59.294Z,99.90
2023-01-20T06:45:00.749Z,99.50
2023-01-20T06:48:02.257Z,99.90
2023-01-20T06:51:04.812Z,99.90
2023-01-20T06:54:06.298Z,99.90
2023-01-20T06:57:07.820Z,99.90
2023-01-20T07:00:09.630Z,99.90
2023-01-20T07:03:13.178Z,99.90
2023-01-20T07:06:16.953Z,99.90
2023-01-20T07:09:18.432Z,99.90
2023-01-20T07:12:20.110Z,99.90
2023-01-20T07:15:21.748Z,99.80
2023-01-20T07:18:23.279Z,99.90
2023-01-20T07:21:26.566Z,99.90
2023-01-20T07:24:28.217Z,99.90
2023-01-20T07:27:29.665Z,99.90
2023-01-20T07:30:31.352Z,99.90
2023-01-20T07:33:33.332Z,99.90
2023-01-20T07:36:34.799Z,99.90
2023-01-20T07:39:36.399Z,99.90
2023-01-20T07:42:37.961Z,99.90
2023-01-20T07:45:39.510Z,99.90
2023-01-20T07:48:41.471Z,99.90
2023-01-20T07:51:43.812Z,99.90
2023-01-20T07:54:45.377Z,99.90
2023-01-20T07:57:47.012Z,99.90
2023-01-20T08:00:49.051Z,99.90
2023-01-20T08:03:50.962Z,99.90
2023-01-20T08:06:52.526Z,99.90
2023-01-20T08:09:54.043Z,99.90
2023-01-20T08:12:55.525Z,99.80
2023-01-20T08:15:59.980Z,99.90
2023-01-20T08:19:01.645Z,99.90
2023-01-20T08:22:03.213Z,99.90
2023-01-20T08:25:04.875Z,99.90
2023-01-20T08:28:06.384Z,99.80
2023-01-20T08:31:12.772Z,99.90
2023-01-20T08:34:14.593Z,99.40
2023-01-20T08:37:16.060Z,99.90
2023-01-20T08:40:17.634Z,99.90
2023-01-20T08:43:19.305Z,99.80
2023-01-20T08:46:21.419Z,99.80
2023-01-20T08:49:23.433Z,99.80
2023-01-20T08:52:24.918Z,99.60
2023-01-20T08:55:26.407Z,99.60
2023-01-20T08:58:28.749Z,99.60
2023-01-20T09:01:33.465Z,99.60
2023-01-20T09:04:36.060Z,99.60
2023-01-20T09:07:37.607Z,99.60
2023-01-20T09:10:39.128Z,99.70
2023-01-20T09:13:41.219Z,99.60
2023-01-20T09:16:42.778Z,99.60
2023-01-20T09:19:44.288Z,99.90
2023-01-20T09:22:45.783Z,99.70
2023-01-20T09:25:47.463Z,99.60
2023-01-20T09:28:48.913Z,99.50
2023-01-20T09:31:50.540Z,99.60
2023-01-20T09:34:52.266Z,99.50
2023-01-20T09:38:12.565Z,99.50
2023-01-20T09:41:36.814Z,99.00
2023-01-20T09:44:55.732Z,98.90
2023-01-20T09:48:03.706Z,98.90
2023-01-20T09:51:27.133Z,99.60
2023-01-20T09:54:33.292Z,99.60
2023-01-20T09:57:37.322Z,99.50
2023-01-20T10:00:40.774Z,99.50
2023-01-20T10:03:48.222Z,99.40
2023-01-20T10:06:51.472Z,99.90
2023-01-20T10:10:05.363Z,99.60
2023-01-20T10:13:22.179Z,98.80
2023-01-20T10:16:27.692Z,98.90
2023-01-20T10:19:42.310Z,99.50
2023-01-20T10:22:56.042Z,98.80
2023-01-20T10:26:06.198Z,98.80
2023-01-20T10:29:10.031Z,98.70
2023-01-20T10:32:16.196Z,99.20
2023-01-20T10:35:23.394Z,99.30
2023-01-20T10:38:25.228Z,98.40
2023-01-20T10:41:45.414Z,99.40
2023-01-20T10:44:48.020Z,98.40
2023-01-20T10:47:58.319Z,99.40
2023-01-20T10:51:02.795Z,99.20
2023-01-20T10:54:19.530Z,98.70
2023-01-20T10:57:21.825Z,98.80
2023-01-20T11:00:24.919Z,99.40
2023-01-20T11:03:27.257Z,99.50
2023-01-20T11:06:28.841Z,99.40
2023-01-20T11:09:34.389Z,99.30
2023-01-20T11:12:37.809Z,98.60
2023-01-20T11:15:46.792Z,99.40
2023-01-20T11:18:57.411Z,98.70
2023-01-20T11:22:09.855Z,98.70
2023-01-20T11:25:22.586Z,99.40
2023-01-20T11:28:24.998Z,99.50
2023-01-20T11:31:38.127Z,99.50
2023-01-20T11:34:48.819Z,98.80
2023-01-20T11:37:50.924Z,99.40
2023-01-20T11:40:57.118Z,99.40
2023-01-20T11:43:59.680Z,98.80
2023-01-20T11:47:16.333Z,99.40
2023-01-20T11:50:20.808Z,99.30
2023-01-20T11:53:26.451Z,99.30
2023-01-20T11:56:27.957Z,98.50
2023-01-20T11:59:30.870Z,99.20
2023-01-20T12:02:32.911Z,99.20
2023-01-20T12:05:42.439Z,99.80
2023-01-20T12:08:49.685Z,98.60
2023-01-20T12:12:10.247Z,98.60
2023-01-20T12:15:11.711Z,98.50
2023-01-20T12:18:19.164Z,99.60
2023-01-20T12:21:24.036Z,98.60
2023-01-20T12:25:10.607Z,99.40
2023-01-20T12:28:19.278Z,98.80
2023-01-20T12:31:23.819Z,98.80
2023-01-20T12:34:29.587Z,99.50
2023-01-20T12:37:42.517Z,98.90
2023-01-20T12:40:50.949Z,98.90
2023-01-20T12:43:56.269Z,99.60
2023-01-20T12:47:04.027Z,99.50
2023-01-20T12:50:18.082Z,99.40
2023-01-20T12:53:26.882Z,98.60
2023-01-20T12:56:55.289Z,99.20
2023-01-20T13:00:02.525Z,98.60
2023-01-20T13:03:07.169Z,98.50
2023-01-20T13:06:23.187Z,98.50
2023-01-20T13:09:27.385Z,98.60
2023-01-20T13:12:51.568Z,98.50
2023-01-20T13:16:25.326Z,98.60
2023-01-20T13:19:32.025Z,98.40
2023-01-20T13:22:34.797Z,98.40
2023-01-20T13:25:37.166Z,99.00
2023-01-20T13:28:38.677Z,99.00
2023-01-20T13:31:45.200Z,99.00
2023-01-20T13:34:46.815Z,98.50
2023-01-20T13:37:56.227Z,99.10
2023-01-20T13:41:02.879Z,98.60
2023-01-20T13:44:24.309Z,99.20
2023-01-20T13:47:48.757Z,99.10
2023-01-20T13:50:51.590Z,98.50
2023-01-20T13:53:53.235Z,99.00
2023-01-20T13:57:24.115Z,98.90
2023-01-20T14:00:25.621Z,98.60
2023-01-20T14:03:31.219Z,99.00
2023-01-20T14:06:34.130Z,98.40
2023-01-20T14:09:35.655Z,99.00
2023-01-20T14:12:40.824Z,98.90
2023-01-20T14:15:42.401Z,98.40
2023-01-20T14:18:43.949Z,99.00
2023-01-20T14:21:45.437Z,99.10
2023-01-20T14:24:48.027Z,99.20
2023-01-20T14:27:49.536Z,99.10
2023-01-20T14:31:04.819Z,98.90
2023-01-20T14:34:25.298Z,99.20
2023-01-20T14:37:31.143Z,98.50
2023-01-20T14:40:34.712Z,98.50
2023-01-20T14:43:36.185Z,99.10
2023-01-20T14:46:38.480Z,99.20
2023-01-20T14:49:40.308Z,99.20
2023-01-20T14:52:41.986Z,99.20
2023-01-20T14:55:55.009Z,99.10
2023-01-20T14:58:58.081Z,99.70
2023-01-20T15:02:02.235Z,99.00
2023-01-20T15:05:19.232Z,99.50
2023-01-20T15:08:25.441Z,98.60
2023-01-20T15:11:31.108Z,99.30
2023-01-20T15:14:33.102Z,99.20
2023-01-20T15:17:34.581Z,99.20
2023-01-20T15:20:37.216Z,99.10
2023-01-20T15:23:41.112Z,99.20
2023-01-20T15:26:43.022Z,99.30
2023-01-20T15:29:57.873Z,99.40
2023-01-20T15:33:00.386Z,99.40
2023-01-20T15:36:01.935Z,99.20
2023-01-20T15:39:03.448Z,99.50
2023-01-20T15:42:05.960Z,99.10
2023-01-20T15:45:07.793Z,99.20
2023-01-20T15:48:27.386Z,98.90
2023-01-20T15:51:28.861Z,98.50
2023-01-20T15:54:30.329Z,99.10
2023-01-20T15:57:31.867Z,99.00
2023-01-20T16:00:34.125Z,99.00
2023-01-20T16:03:35.651Z,99.50
2023-01-20T16:06:37.373Z,99.20
2023-01-20T16:09:38.983Z,99.30
2023-01-20T16:12:40.439Z,99.50
2023-01-20T16:15:42.822Z,99.00
2023-01-20T16:18:44.369Z,99.60
2023-01-20T16:21:45.966Z,99.80
2023-01-20T16:24:49.068Z,99.80
2023-01-20T16:27:50.589Z,99.80
2023-01-20T16:30:53.935Z,99.80
2023-01-20T16:33:55.508Z,99.90
2023-01-20T16:36:56.990Z,99.90
2023-01-20T16:39:58.549Z,99.90
2023-01-20T16:43:00.023Z,99.80
2023-01-20T16:46:01.682Z,99.90
2023-01-20T16:49:03.525Z,99.90
2023-01-20T16:52:05.117Z,99.80
2023-01-20T16:55:06.803Z,99.60
2023-01-20T16:58:08.497Z,99.90
2023-01-20T17:01:13.126Z,99.90
2023-01-20T17:04:14.707Z,99.40
2023-01-20T17:07:16.224Z,99.90
2023-01-20T17:10:18.246Z,99.90
2023-01-20T17:13:19.854Z,99.90
2023-01-20T17:16:21.905Z,99.90
2023-01-20T17:19:23.816Z,99.90
2023-01-20T17:22:25.460Z,99.90
2023-01-20T17:25:27.037Z,99.90
2023-01-20T17:28:28.495Z,99.90
2023-01-20T17:31:32.966Z,99.90
2023-01-20T17:34:34.725Z,99.90
2023-01-20T17:37:37.463Z,99.90
2023-01-20T17:40:38.932Z,99.90
2023-01-20T17:43:43.030Z,99.90
2023-01-20T17:46:44.592Z,99.90
2023-01-20T17:49:46.149Z,99.80
2023-01-20T17:52:47.710Z,99.80
2023-01-20T17:55:51.889Z,99.90
2023-01-20T17:58:54.947Z,99.90
2023-01-20T18:01:56.820Z,99.90
2023-01-20T18:04:58.324Z,99.90
2023-01-20T18:07:59.966Z,99.90
2023-01-20T18:11:09.437Z,99.80
2023-01-20T18:14:10.980Z,99.50
2023-01-20T18:17:12.472Z,99.90
2023-01-20T18:20:15.547Z,99.90
2023-01-20T18:23:17.266Z,99.90
2023-01-20T18:26:20.803Z,99.90
2023-01-20T18:29:22.287Z,99.90
2023-01-20T18:32:24.231Z,99.90
2023-01-20T18:35:25.919Z,99.90
2023-01-20T18:38:27.400Z,99.90
2023-01-20T18:41:30.572Z,99.90
2023-01-20T18:44:32.079Z,99.90
2023-01-20T18:47:33.544Z,99.90
2023-01-20T18:50:35.068Z,99.90
2023-01-20T18:53:36.628Z,99.90
2023-01-20T18:56:38.240Z,99.90
2023-01-20T18:59:41.812Z,99.90
2023-01-20T19:02:43.357Z,99.90
2023-01-20T19:05:44.861Z,99.90
2023-01-20T19:08:48.230Z,99.90
2023-01-20T19:11:49.834Z,99.90
2023-01-20T19:14:52.506Z,99.90
2023-01-20T19:17:54.079Z,99.90
2023-01-20T19:20:55.776Z,99.90
2023-01-20T19:23:59.750Z,99.90
2023-01-20T19:27:03.647Z,99.90
2023-01-20T19:30:06.003Z,99.90
2023-01-20T19:33:11.898Z,99.90
2023-01-20T19:36:14.160Z,99.90
2023-01-20T19:39:16.032Z,99.90
2023-01-20T19:42:17.511Z,99.90
2023-01-20T19:45:19.121Z,99.90
2023-01-20T19:48:20.604Z,99.90
2023-01-20T19:51:22.238Z,99.90
2023-01-20T19:54:24.358Z,99.90
2023-01-20T19:57:27.125Z,99.90
2023-01-20T20:00:28.688Z,99.90
2023-01-20T20:03:30.180Z,99.90
2023-01-20T20:06:39.992Z,99.90
2023-01-20T20:09:42.360Z,99.90
2023-01-20T20:12:43.895Z,99.90
2023-01-20T20:15:45.382Z,99.90
2023-01-20T20:18:51.054Z,99.90
2023-01-20T20:21:53.786Z,99.50
2023-01-20T20:24:55.366Z,99.90
2023-01-20T20:27:57.620Z,99.90
2023-01-20T20:31:04.220Z,99.90
2023-01-20T20:34:07.231Z,99.90
2023-01-20T20:37:08.717Z,99.90
2023-01-20T20:40:10.579Z,99.90
2023-01-20T20:43:12.102Z,99.70
2023-01-20T20:46:14.866Z,99.90
2023-01-20T20:49:16.436Z,99.90
2023-01-20T20:52:17.952Z,99.90
2023-01-20T20:55:19.624Z,99.90
2023-01-20T20:58:21.542Z,99.90
2023-01-20T21:01:23.287Z,99.90
2023-01-20T21:04:24.879Z,99.90
2023-01-20T21:07:26.367Z,99.90
2023-01-20T21:10:29.058Z,99.90
2023-01-20T21:13:31.138Z,99.90
2023-01-20T21:16:33.569Z,99.90
2023-01-20T21:19:35.093Z,99.90
2023-01-20T21:22:36.849Z,99.90
2023-01-20T21:25:38.320Z,99.90
2023-01-20T21:28:40.605Z,99.90
2023-01-20T21:31:42.224Z,99.90
2023-01-20T21:34:44.853Z,99.90
2023-01-20T21:37:47.276Z,99.90
2023-01-20T21:41:01.258Z,99.90
2023-01-20T21:44:21.548Z,99.50
2023-01-20T21:47:23.100Z,99.50
2023-01-20T21:50:43.178Z,99.90
2023-01-20T21:53:45.953Z,99.50
2023-01-20T21:56:48.284Z,99.90
2023-01-20T21:59:49.844Z,99.90
2023-01-20T22:02:51.319Z,99.90
2023-01-20T22:05:52.788Z,99.90
2023-01-20T22:08:54.467Z,99.90
2023-01-20T22:11:55.938Z,99.90
2023-01-20T22:14:57.440Z,99.90
2023-01-20T22:17:59.052Z,99.90
2023-01-20T22:21:04.423Z,99.90
2023-01-20T22:24:10.931Z,99.90
2023-01-20T22:27:12.432Z,99.90
2023-01-20T22:30:14.475Z,99.90
2023-01-20T22:33:16.198Z,99.90
2023-01-20T22:36:17.778Z,99.90
2023-01-20T22:39:19.302Z,99.90
2023-01-20T22:42:20.778Z,99.90
2023-01-20T22:45:22.248Z,99.90
2023-01-20T22:48:23.897Z,99.90
2023-01-20T22:51:26.484Z,99.70
2023-01-20T22:54:28.438Z,99.90
2023-01-20T22:57:30.353Z,99.90
2023-01-20T23:00:31.843Z,99.90
2023-01-20T23:03:33.440Z,99.90
2023-01-20T23:06:35.732Z,99.80
2023-01-20T23:09:37.254Z,99.90
2023-01-20T23:12:38.724Z,99.90
2023-01-20T23:15:40.223Z,99.90
2023-01-20T23:18:41.797Z,99.80
2023-01-20T23:21:43.309Z,99.90
2023-01-20T23:24:44.808Z,99.90
2023-01-20T23:27:46.820Z,99.90
2023-01-20T23:30:48.284Z,99.40
2023-01-20T23:33:50.037Z,99.90
2023-01-20T23:36:51.790Z,99.90
2023-01-20T23:39:53.335Z,99.90
2023-01-20T23:42:54.799Z,99.90
2023-01-20T23:45:57.389Z,99.90
2023-01-20T23:48:58.909Z,99.80
2023-01-20T23:52:00.361Z,99.90
2023-01-20T23:55:01.852Z,99.90
2023-01-20T23:58:03.590Z,99.90
